BAW7MA LSGG-EGJJ
Flight info
| Callsign | BAW7MA |
|---|---|
| Flight time | 1h 11m |
| Altitude | 36000 |
| Route | DIPIR T37 IBABA DCT TUTAX DCT OBURO DCT OKRIX DCT AMODO DCT COHPA UM729 RESMI UN491 LGL UN502 SENLO G274 BEVAV |
| Aircraft | E190/M-SDE3GILORVW/S |
Departure
| Time | 2026-05-05 16:31 |
|---|---|
| Airport | Geneva International Airport (LSGG) |
Arrival
| Time | 2026-05-05 17:42 |
|---|---|
| Airport | Jersey Airport (EGJJ) |
| Time | Latitude | Longitude | Altitude | Speed | Heading |
|---|---|---|---|---|---|
| 2026-05-05 16:10 | 46.23126 | 6.10511 | 1401 ft | 0 kts | 90° |
| 2026-05-05 16:24 | 46.23126 | 6.10548 | 1411 ft | 5 kts | 90° |
| 2026-05-05 16:25 | 46.23136 | 6.10609 | 1391 ft | 7 kts | 56° |
| 2026-05-05 16:25 | 46.23259 | 6.10776 | 1398 ft | 16 kts | 21° |
| 2026-05-05 16:25 | 46.23356 | 6.10846 | 1401 ft | 16 kts | 45° |
| 2026-05-05 16:26 | 46.23525 | 6.11093 | 1396 ft | 18 kts | 45° |
| 2026-05-05 16:26 | 46.23713 | 6.11092 | 1380 ft | 18 kts | 50° |
| 2026-05-05 16:27 | 46.23815 | 6.11242 | 1377 ft | 24 kts | 46° |
| 2026-05-05 16:27 | 46.23937 | 6.11420 | 1373 ft | 26 kts | 47° |
| 2026-05-05 16:27 | 46.24070 | 6.11616 | 1368 ft | 29 kts | 46° |
| 2026-05-05 16:27 | 46.24216 | 6.11831 | 1361 ft | 29 kts | 45° |
| 2026-05-05 16:28 | 46.24356 | 6.12036 | 1364 ft | 28 kts | 45° |
| 2026-05-05 16:28 | 46.24484 | 6.12224 | 1371 ft | 25 kts | 45° |
| 2026-05-05 16:28 | 46.24609 | 6.12407 | 1368 ft | 27 kts | 46° |
| 2026-05-05 16:28 | 46.24749 | 6.12612 | 1360 ft | 25 kts | 45° |
| 2026-05-05 16:29 | 46.24862 | 6.12697 | 1363 ft | 15 kts | 17° |
| 2026-05-05 16:29 | 46.24953 | 6.12734 | 1367 ft | 12 kts | 15° |
| 2026-05-05 16:29 | 46.25020 | 6.12703 | 1370 ft | 9 kts | 307° |
| 2026-05-05 16:29 | 46.25011 | 6.12665 | 1370 ft | 4 kts | 227° |
| 2026-05-05 16:30 | 46.24987 | 6.12628 | 1370 ft | 9 kts | 226° |
| 2026-05-05 16:30 | 46.24811 | 6.12369 | 1370 ft | 69 kts | 225° |
| 2026-05-05 16:30 | 46.24333 | 6.11669 | 1371 ft | 127 kts | 225° |
| 2026-05-05 16:30 | 46.23604 | 6.10604 | 1487 ft | 165 kts | 226° |
| 2026-05-05 16:31 | 46.22771 | 6.09391 | 2159 ft | 171 kts | 225° |
| 2026-05-05 16:31 | 46.21974 | 6.08168 | 3033 ft | 164 kts | 227° |
| 2026-05-05 16:31 | 46.21208 | 6.07002 | 3829 ft | 158 kts | 224° |
| 2026-05-05 16:31 | 46.20441 | 6.05855 | 4521 ft | 159 kts | 224° |
| 2026-05-05 16:32 | 46.19630 | 6.04708 | 5091 ft | 166 kts | 223° |
| 2026-05-05 16:32 | 46.18799 | 6.03550 | 5768 ft | 167 kts | 224° |
| 2026-05-05 16:32 | 46.17978 | 6.02337 | 6411 ft | 170 kts | 224° |
| 2026-05-05 16:32 | 46.17154 | 6.01099 | 7029 ft | 172 kts | 225° |
| 2026-05-05 16:33 | 46.16496 | 5.99657 | 7576 ft | 179 kts | 255° |
| 2026-05-05 16:33 | 46.16718 | 5.97845 | 8057 ft | 199 kts | 297° |
| 2026-05-05 16:33 | 46.17841 | 5.96567 | 8476 ft | 220 kts | 336° |
| 2026-05-05 16:33 | 46.19348 | 5.95917 | 8928 ft | 231 kts | 340° |
| 2026-05-05 16:34 | 46.20916 | 5.95229 | 9366 ft | 240 kts | 338° |
| 2026-05-05 16:34 | 46.22516 | 5.94380 | 9801 ft | 249 kts | 334° |
| 2026-05-05 16:34 | 46.23860 | 5.93587 | 10125 ft | 257 kts | 333° |
| 2026-05-05 16:34 | 46.25521 | 5.92512 | 10511 ft | 266 kts | 329° |
| 2026-05-05 16:35 | 46.27145 | 5.91263 | 11138 ft | 262 kts | 328° |
| 2026-05-05 16:35 | 46.28509 | 5.90190 | 11902 ft | 252 kts | 327° |
| 2026-05-05 16:35 | 46.30013 | 5.88995 | 12782 ft | 242 kts | 327° |
| 2026-05-05 16:35 | 46.31458 | 5.87842 | 13672 ft | 232 kts | 326° |
| 2026-05-05 16:36 | 46.32892 | 5.86693 | 14213 ft | 241 kts | 326° |
| 2026-05-05 16:36 | 46.34285 | 5.85579 | 14724 ft | 250 kts | 326° |
| 2026-05-05 16:36 | 46.35834 | 5.84349 | 15255 ft | 262 kts | 326° |
| 2026-05-05 16:36 | 46.37483 | 5.83032 | 15528 ft | 285 kts | 327° |
| 2026-05-05 16:37 | 46.39312 | 5.81571 | 15842 ft | 308 kts | 327° |
| 2026-05-05 16:37 | 46.41231 | 5.80039 | 16169 ft | 329 kts | 327° |
| 2026-05-05 16:37 | 46.43293 | 5.78391 | 16476 ft | 349 kts | 327° |
| 2026-05-05 16:37 | 46.45484 | 5.76639 | 16796 ft | 369 kts | 327° |
| 2026-05-05 16:38 | 46.47782 | 5.74799 | 17105 ft | 387 kts | 327° |
| 2026-05-05 16:38 | 46.50197 | 5.72860 | 17412 ft | 404 kts | 327° |
| 2026-05-05 16:38 | 46.52686 | 5.70866 | 17698 ft | 413 kts | 327° |
| 2026-05-05 16:38 | 46.55204 | 5.68856 | 18092 ft | 412 kts | 327° |
| 2026-05-05 16:39 | 46.57707 | 5.66808 | 18840 ft | 413 kts | 327° |
| 2026-05-05 16:39 | 46.60216 | 5.64772 | 19621 ft | 414 kts | 327° |
| 2026-05-05 16:39 | 46.62730 | 5.62724 | 20400 ft | 413 kts | 327° |
| 2026-05-05 16:39 | 46.65203 | 5.60614 | 21207 ft | 411 kts | 326° |
| 2026-05-05 16:40 | 46.67698 | 5.58693 | 22037 ft | 408 kts | 327° |
| 2026-05-05 16:40 | 46.70167 | 5.56688 | 22891 ft | 405 kts | 327° |
| 2026-05-05 16:40 | 46.72634 | 5.54757 | 23696 ft | 401 kts | 326° |
| 2026-05-05 16:40 | 46.75045 | 5.52727 | 24340 ft | 401 kts | 326° |
| 2026-05-05 16:41 | 46.77476 | 5.50698 | 24917 ft | 403 kts | 326° |
| 2026-05-05 16:41 | 46.79913 | 5.48652 | 25522 ft | 404 kts | 326° |
| 2026-05-05 16:41 | 46.82351 | 5.46604 | 26125 ft | 404 kts | 326° |
| 2026-05-05 16:41 | 46.84768 | 5.44530 | 26752 ft | 402 kts | 322° |
| 2026-05-05 16:42 | 46.86937 | 5.42017 | 27400 ft | 394 kts | 310° |
| 2026-05-05 16:42 | 46.88702 | 5.39020 | 28035 ft | 386 kts | 299° |
| 2026-05-05 16:42 | 46.90018 | 5.35634 | 28569 ft | 379 kts | 288° |
| 2026-05-05 16:42 | 46.90837 | 5.32029 | 29117 ft | 372 kts | 277° |
| 2026-05-05 16:43 | 46.91491 | 5.28369 | 29691 ft | 374 kts | 284° |
| 2026-05-05 16:43 | 46.92593 | 5.24896 | 30198 ft | 380 kts | 296° |
| 2026-05-05 16:43 | 46.94165 | 5.21757 | 30688 ft | 385 kts | 307° |
| 2026-05-05 16:43 | 46.96127 | 5.19057 | 31191 ft | 387 kts | 315° |
| 2026-05-05 16:44 | 46.98211 | 5.16587 | 31701 ft | 384 kts | 315° |
| 2026-05-05 16:44 | 47.00202 | 5.14019 | 32153 ft | 380 kts | 313° |
| 2026-05-05 16:44 | 47.02171 | 5.11429 | 32474 ft | 381 kts | 313° |
| 2026-05-05 16:44 | 47.04115 | 5.08853 | 32777 ft | 382 kts | 313° |
| 2026-05-05 16:45 | 47.06088 | 5.06232 | 33099 ft | 383 kts | 313° |
| 2026-05-05 16:45 | 47.08062 | 5.03606 | 33423 ft | 383 kts | 313° |
| 2026-05-05 16:45 | 47.10037 | 5.00976 | 33746 ft | 383 kts | 313° |
| 2026-05-05 16:45 | 47.12009 | 4.98350 | 34044 ft | 383 kts | 313° |
| 2026-05-05 16:46 | 47.13976 | 4.95725 | 34326 ft | 383 kts | 313° |
| 2026-05-05 16:46 | 47.15952 | 4.93087 | 34618 ft | 382 kts | 313° |
| 2026-05-05 16:46 | 47.17915 | 4.90464 | 34900 ft | 382 kts | 313° |
| 2026-05-05 16:46 | 47.19876 | 4.87840 | 35200 ft | 381 kts | 312° |
| 2026-05-05 16:47 | 47.21831 | 4.85221 | 35488 ft | 379 kts | 312° |
| 2026-05-05 16:47 | 47.23781 | 4.82606 | 35734 ft | 380 kts | 312° |
| 2026-05-05 16:47 | 47.27740 | 4.77291 | 35844 ft | 391 kts | 313° |
| 2026-05-05 16:48 | 47.31819 | 4.71801 | 35873 ft | 404 kts | 313° |
| 2026-05-05 16:48 | 47.35958 | 4.66220 | 35873 ft | 418 kts | 313° |
| 2026-05-05 16:49 | 47.40287 | 4.60369 | 35866 ft | 431 kts | 313° |
| 2026-05-05 16:49 | 47.44800 | 4.54253 | 35858 ft | 444 kts | 313° |
| 2026-05-05 16:50 | 47.49407 | 4.47996 | 35847 ft | 456 kts | 313° |
| 2026-05-05 16:50 | 47.54135 | 4.41558 | 35832 ft | 466 kts | 313° |
| 2026-05-05 16:51 | 47.58936 | 4.35005 | 35830 ft | 477 kts | 313° |
| 2026-05-05 16:51 | 47.63741 | 4.28229 | 35821 ft | 473 kts | 308° |
| 2026-05-05 16:52 | 47.67797 | 4.20627 | 35828 ft | 468 kts | 300° |
| 2026-05-05 16:52 | 47.71476 | 4.12634 | 35819 ft | 468 kts | 300° |
| 2026-05-05 16:53 | 47.75119 | 4.04605 | 35826 ft | 468 kts | 300° |
| 2026-05-05 16:53 | 47.78728 | 3.96625 | 35815 ft | 468 kts | 299° |
| 2026-05-05 16:54 | 47.82359 | 3.88574 | 35824 ft | 469 kts | 299° |
| 2026-05-05 16:54 | 47.85991 | 3.80500 | 35828 ft | 468 kts | 299° |
| 2026-05-05 16:55 | 47.89613 | 3.72423 | 35816 ft | 468 kts | 299° |
| 2026-05-05 16:55 | 47.93227 | 3.64341 | 35814 ft | 469 kts | 299° |
| 2026-05-05 16:56 | 47.97187 | 3.56584 | 35817 ft | 474 kts | 308° |
| 2026-05-05 16:56 | 48.02001 | 3.49866 | 35814 ft | 478 kts | 314° |
| 2026-05-05 16:57 | 48.06970 | 3.43451 | 35806 ft | 478 kts | 315° |
| 2026-05-05 16:57 | 48.12003 | 3.36970 | 35812 ft | 478 kts | 315° |
| 2026-05-05 16:58 | 48.17053 | 3.30447 | 35813 ft | 478 kts | 315° |
| 2026-05-05 16:58 | 48.22073 | 3.23944 | 35810 ft | 478 kts | 315° |
| 2026-05-05 16:59 | 48.27104 | 3.17409 | 35809 ft | 478 kts | 315° |
| 2026-05-05 16:59 | 48.32122 | 3.10873 | 35806 ft | 477 kts | 315° |
| 2026-05-05 17:00 | 48.37135 | 3.04326 | 35808 ft | 477 kts | 315° |
| 2026-05-05 17:00 | 48.41792 | 2.97325 | 35816 ft | 470 kts | 302° |
| 2026-05-05 17:01 | 48.44784 | 2.88739 | 35823 ft | 460 kts | 284° |
| 2026-05-05 17:01 | 48.46139 | 2.79927 | 35825 ft | 455 kts | 277° |
| 2026-05-05 17:02 | 48.47308 | 2.70552 | 35824 ft | 456 kts | 278° |
| 2026-05-05 17:02 | 48.48678 | 2.62847 | 35825 ft | 458 kts | 282° |
| 2026-05-05 17:03 | 48.50422 | 2.53602 | 35828 ft | 459 kts | 282° |
| 2026-05-05 17:03 | 48.52170 | 2.44331 | 35834 ft | 459 kts | 282° |
| 2026-05-05 17:04 | 48.53905 | 2.35082 | 35826 ft | 459 kts | 282° |
| 2026-05-05 17:04 | 48.55640 | 2.25771 | 35831 ft | 460 kts | 282° |
| 2026-05-05 17:05 | 48.57233 | 2.16426 | 35823 ft | 458 kts | 279° |
| 2026-05-05 17:05 | 48.58583 | 2.07027 | 35833 ft | 459 kts | 278° |
| 2026-05-05 17:06 | 48.59903 | 1.97597 | 35819 ft | 459 kts | 278° |
| 2026-05-05 17:06 | 48.61214 | 1.88157 | 35834 ft | 460 kts | 278° |
| 2026-05-05 17:07 | 48.62514 | 1.78754 | 35835 ft | 460 kts | 278° |
| 2026-05-05 17:07 | 48.63818 | 1.69289 | 35814 ft | 460 kts | 278° |
| 2026-05-05 17:08 | 48.65108 | 1.59799 | 35828 ft | 460 kts | 278° |
| 2026-05-05 17:08 | 48.66387 | 1.50312 | 35833 ft | 461 kts | 278° |
| 2026-05-05 17:09 | 48.67655 | 1.40856 | 35842 ft | 461 kts | 278° |
| 2026-05-05 17:09 | 48.68923 | 1.31339 | 35838 ft | 461 kts | 278° |
| 2026-05-05 17:10 | 48.70186 | 1.21791 | 35840 ft | 462 kts | 278° |
| 2026-05-05 17:10 | 48.71440 | 1.12255 | 35846 ft | 462 kts | 278° |
| 2026-05-05 17:11 | 48.72678 | 1.02768 | 35851 ft | 462 kts | 278° |
| 2026-05-05 17:11 | 48.73916 | 0.93198 | 35862 ft | 463 kts | 278° |
| 2026-05-05 17:12 | 48.75158 | 0.83612 | 35864 ft | 463 kts | 278° |
| 2026-05-05 17:12 | 48.76300 | 0.74728 | 35872 ft | 464 kts | 278° |
| 2026-05-05 17:13 | 48.77527 | 0.65130 | 35867 ft | 463 kts | 278° |
| 2026-05-05 17:13 | 48.78736 | 0.55532 | 35876 ft | 464 kts | 278° |
| 2026-05-05 17:14 | 48.80334 | 0.46009 | 35880 ft | 466 kts | 282° |
| 2026-05-05 17:14 | 48.82052 | 0.36507 | 35872 ft | 467 kts | 283° |
| 2026-05-05 17:15 | 48.83767 | 0.26988 | 35880 ft | 464 kts | 282° |
| 2026-05-05 17:15 | 48.84598 | 0.22364 | 35323 ft | 458 kts | 282° |
| 2026-05-05 17:15 | 48.85431 | 0.17721 | 34684 ft | 453 kts | 282° |
| 2026-05-05 17:16 | 48.86250 | 0.13136 | 34078 ft | 448 kts | 282° |
| 2026-05-05 17:16 | 48.87058 | 0.08592 | 33414 ft | 443 kts | 282° |
| 2026-05-05 17:16 | 48.87855 | 0.04091 | 32680 ft | 438 kts | 282° |
| 2026-05-05 17:16 | 48.88642 | -0.00357 | 31965 ft | 434 kts | 282° |
| 2026-05-05 17:17 | 48.89420 | -0.04755 | 31266 ft | 430 kts | 282° |
| 2026-05-05 17:17 | 48.90190 | -0.09124 | 30578 ft | 426 kts | 282° |
| 2026-05-05 17:17 | 48.90953 | -0.13463 | 29898 ft | 422 kts | 282° |
| 2026-05-05 17:17 | 48.91706 | -0.17752 | 29136 ft | 419 kts | 282° |
| 2026-05-05 17:18 | 48.92472 | -0.22005 | 28386 ft | 415 kts | 282° |
| 2026-05-05 17:18 | 48.93184 | -0.26235 | 27656 ft | 411 kts | 282° |
| 2026-05-05 17:18 | 48.93896 | -0.30426 | 26958 ft | 407 kts | 282° |
| 2026-05-05 17:18 | 48.94598 | -0.34586 | 26275 ft | 404 kts | 282° |
| 2026-05-05 17:19 | 48.95295 | -0.38706 | 25612 ft | 401 kts | 282° |
| 2026-05-05 17:19 | 48.95981 | -0.42788 | 24977 ft | 397 kts | 282° |
| 2026-05-05 17:19 | 48.96661 | -0.46835 | 24356 ft | 393 kts | 282° |
| 2026-05-05 17:19 | 48.97332 | -0.50839 | 23744 ft | 389 kts | 282° |
| 2026-05-05 17:20 | 48.97997 | -0.54811 | 23074 ft | 385 kts | 282° |
| 2026-05-05 17:20 | 48.98654 | -0.58751 | 22359 ft | 383 kts | 282° |
| 2026-05-05 17:20 | 48.99305 | -0.62657 | 21668 ft | 379 kts | 282° |
| 2026-05-05 17:20 | 48.99948 | -0.66532 | 20993 ft | 376 kts | 282° |
| 2026-05-05 17:21 | 49.00587 | -0.70379 | 20317 ft | 373 kts | 282° |
| 2026-05-05 17:21 | 49.01213 | -0.74154 | 19887 ft | 364 kts | 282° |
| 2026-05-05 17:21 | 49.01826 | -0.77879 | 19469 ft | 361 kts | 282° |
| 2026-05-05 17:22 | 49.03044 | -0.85287 | 18660 ft | 363 kts | 282° |
| 2026-05-05 17:22 | 49.03655 | -0.89013 | 18260 ft | 361 kts | 282° |
| 2026-05-05 17:22 | 49.04260 | -0.92723 | 17624 ft | 361 kts | 282° |
| 2026-05-05 17:22 | 49.04864 | -0.96437 | 16902 ft | 360 kts | 283° |
| 2026-05-05 17:23 | 49.05466 | -1.00125 | 16211 ft | 359 kts | 283° |
| 2026-05-05 17:23 | 49.06065 | -1.03813 | 15530 ft | 357 kts | 283° |
| 2026-05-05 17:23 | 49.06661 | -1.07483 | 14868 ft | 356 kts | 284° |
| 2026-05-05 17:23 | 49.07245 | -1.11101 | 14232 ft | 354 kts | 284° |
| 2026-05-05 17:24 | 49.07634 | -1.14234 | 13679 ft | 353 kts | 278° |
| 2026-05-05 17:24 | 49.07887 | -1.17945 | 13026 ft | 350 kts | 275° |
| 2026-05-05 17:24 | 49.08060 | -1.21627 | 12381 ft | 346 kts | 274° |
| 2026-05-05 17:24 | 49.08087 | -1.25277 | 11740 ft | 343 kts | 268° |
| 2026-05-05 17:25 | 49.07996 | -1.28905 | 11112 ft | 340 kts | 268° |
| 2026-05-05 17:25 | 49.07932 | -1.31280 | 10699 ft | 338 kts | 268° |
| 2026-05-05 17:25 | 49.07781 | -1.36023 | 10023 ft | 330 kts | 267° |
| 2026-05-05 17:25 | 49.07669 | -1.39501 | 9510 ft | 325 kts | 268° |
| 2026-05-05 17:26 | 49.07559 | -1.42917 | 8981 ft | 321 kts | 268° |
| 2026-05-05 17:26 | 49.07451 | -1.46301 | 8456 ft | 318 kts | 268° |
| 2026-05-05 17:26 | 49.07342 | -1.49647 | 8014 ft | 313 kts | 268° |
| 2026-05-05 17:26 | 49.07235 | -1.52912 | 7843 ft | 303 kts | 268° |
| 2026-05-05 17:27 | 49.07131 | -1.56096 | 7880 ft | 303 kts | 268° |
| 2026-05-05 17:27 | 49.07024 | -1.59333 | 7911 ft | 305 kts | 268° |
| 2026-05-05 17:27 | 49.06916 | -1.62567 | 7927 ft | 306 kts | 268° |
| 2026-05-05 17:27 | 49.06824 | -1.65776 | 7928 ft | 306 kts | 269° |
| 2026-05-05 17:28 | 49.06758 | -1.69020 | 7926 ft | 306 kts | 270° |
| 2026-05-05 17:28 | 49.06803 | -1.71199 | 7926 ft | 305 kts | 274° |
| 2026-05-05 17:28 | 49.06920 | -1.74309 | 7928 ft | 305 kts | 274° |
| 2026-05-05 17:28 | 49.07054 | -1.77586 | 7929 ft | 305 kts | 275° |
| 2026-05-05 17:29 | 49.07194 | -1.80821 | 7928 ft | 306 kts | 275° |
| 2026-05-05 17:29 | 49.07333 | -1.84054 | 7932 ft | 305 kts | 275° |
| 2026-05-05 17:29 | 49.07469 | -1.87296 | 7936 ft | 306 kts | 275° |
| 2026-05-05 17:29 | 49.07602 | -1.90524 | 7936 ft | 306 kts | 274° |
| 2026-05-05 17:30 | 49.07733 | -1.93741 | 7509 ft | 309 kts | 275° |
| 2026-05-05 17:30 | 49.07869 | -1.96999 | 6937 ft | 307 kts | 275° |
| 2026-05-05 17:30 | 49.07999 | -2.00235 | 6405 ft | 302 kts | 275° |
| 2026-05-05 17:30 | 49.08130 | -2.03446 | 5847 ft | 296 kts | 276° |
| 2026-05-05 17:31 | 49.08259 | -2.06498 | 5310 ft | 291 kts | 276° |
| 2026-05-05 17:31 | 49.08382 | -2.09553 | 4778 ft | 287 kts | 275° |
| 2026-05-05 17:31 | 49.08499 | -2.12570 | 4237 ft | 283 kts | 276° |
| 2026-05-05 17:31 | 49.08614 | -2.15546 | 3707 ft | 279 kts | 276° |
| 2026-05-05 17:32 | 49.08727 | -2.18476 | 3353 ft | 274 kts | 276° |
| 2026-05-05 17:32 | 49.08839 | -2.21336 | 3103 ft | 266 kts | 276° |
| 2026-05-05 17:32 | 49.08950 | -2.24109 | 2836 ft | 259 kts | 276° |
| 2026-05-05 17:32 | 49.09052 | -2.26828 | 2565 ft | 254 kts | 276° |
| 2026-05-05 17:33 | 49.09154 | -2.29494 | 2312 ft | 249 kts | 276° |
| 2026-05-05 17:33 | 49.09249 | -2.32100 | 2121 ft | 242 kts | 276° |
| 2026-05-05 17:33 | 49.09343 | -2.34615 | 2031 ft | 231 kts | 276° |
| 2026-05-05 17:33 | 49.09453 | -2.37000 | 1988 ft | 218 kts | 282° |
| 2026-05-05 17:34 | 49.09730 | -2.39197 | 1974 ft | 206 kts | 280° |
| 2026-05-05 17:34 | 49.09790 | -2.41361 | 1961 ft | 202 kts | 270° |
| 2026-05-05 17:34 | 49.09662 | -2.43455 | 2006 ft | 195 kts | 266° |
| 2026-05-05 17:34 | 49.09488 | -2.45532 | 2030 ft | 199 kts | 266° |
| 2026-05-05 17:35 | 49.09296 | -2.47621 | 2046 ft | 200 kts | 265° |
| 2026-05-05 17:35 | 49.09137 | -2.49720 | 2038 ft | 198 kts | 268° |
| 2026-05-05 17:35 | 49.09033 | -2.51810 | 2021 ft | 197 kts | 274° |
| 2026-05-05 17:35 | 49.09381 | -2.53754 | 1989 ft | 189 kts | 309° |
| 2026-05-05 17:36 | 49.10444 | -2.54759 | 1995 ft | 184 kts | 353° |
| 2026-05-05 17:36 | 49.11646 | -2.54264 | 2020 ft | 185 kts | 38° |
| 2026-05-05 17:36 | 49.12278 | -2.52555 | 2035 ft | 190 kts | 72° |
| 2026-05-05 17:36 | 49.12600 | -2.50599 | 2035 ft | 189 kts | 70° |
| 2026-05-05 17:37 | 49.13179 | -2.48827 | 2007 ft | 187 kts | 54° |
| 2026-05-05 17:37 | 49.13693 | -2.47777 | 2005 ft | 186 kts | 48° |
| 2026-05-05 17:37 | 49.14896 | -2.45879 | 2003 ft | 185 kts | 40° |
| 2026-05-05 17:37 | 49.15911 | -2.44673 | 2018 ft | 185 kts | 34° |
| 2026-05-05 17:38 | 49.16962 | -2.43536 | 2006 ft | 186 kts | 37° |
| 2026-05-05 17:38 | 49.17869 | -2.42168 | 2012 ft | 187 kts | 52° |
| 2026-05-05 17:38 | 49.18664 | -2.40635 | 1986 ft | 177 kts | 48° |
| 2026-05-05 17:38 | 49.19146 | -2.38997 | 1968 ft | 166 kts | 78° |
| 2026-05-05 17:39 | 49.19278 | -2.37287 | 1993 ft | 159 kts | 77° |
| 2026-05-05 17:39 | 49.19461 | -2.35611 | 2015 ft | 160 kts | 78° |
| 2026-05-05 17:39 | 49.19597 | -2.33903 | 2013 ft | 163 kts | 80° |
| 2026-05-05 17:39 | 49.19741 | -2.32168 | 1779 ft | 162 kts | 78° |
| 2026-05-05 17:40 | 49.19884 | -2.30530 | 1558 ft | 149 kts | 79° |
| 2026-05-05 17:40 | 49.20005 | -2.29031 | 1389 ft | 133 kts | 78° |
| 2026-05-05 17:40 | 49.20117 | -2.27706 | 1231 ft | 123 kts | 77° |
| 2026-05-05 17:40 | 49.20227 | -2.26414 | 1053 ft | 122 kts | 78° |
| 2026-05-05 17:41 | 49.20330 | -2.25136 | 900 ft | 120 kts | 78° |
| 2026-05-05 17:41 | 49.20441 | -2.23834 | 761 ft | 124 kts | 77° |
| 2026-05-05 17:41 | 49.20549 | -2.22519 | 571 ft | 123 kts | 77° |
| 2026-05-05 17:41 | 49.20647 | -2.21286 | 379 ft | 114 kts | 76° |
| 2026-05-05 17:42 | 49.20760 | -2.20054 | 280 ft | 111 kts | 82° |
| 2026-05-05 17:42 | 49.20837 | -2.19087 | 281 ft | 69 kts | 83° |
| 2026-05-05 17:42 | 49.20876 | -2.18624 | 278 ft | 29 kts | 83° |
| 2026-05-05 17:42 | 49.20859 | -2.18394 | 277 ft | 22 kts | 145° |
| 2026-05-05 17:43 | 49.20739 | -2.18467 | 279 ft | 16 kts | 245° |
| 2026-05-05 17:43 | 49.20721 | -2.18655 | 276 ft | 19 kts | 263° |
| 2026-05-05 17:43 | 49.20704 | -2.18858 | 276 ft | 19 kts | 263° |
| 2026-05-05 17:43 | 49.20686 | -2.19068 | 278 ft | 20 kts | 263° |
| 2026-05-05 17:44 | 49.20694 | -2.19288 | 278 ft | 21 kts | 286° |
| 2026-05-05 17:44 | 49.20701 | -2.19508 | 277 ft | 16 kts | 261° |
| 2026-05-05 17:44 | 49.20688 | -2.19611 | 279 ft | 0 kts | 242° |
| 2026-05-05 17:44 | 49.20680 | -2.19626 | 281 ft | 4 kts | 230° |
| 2026-05-05 17:45 | 49.20645 | -2.19661 | 279 ft | 7 kts | 202° |
| 2026-05-05 17:45 | 49.20591 | -2.19652 | 279 ft | 9 kts | 163° |
| 2026-05-05 17:45 | 49.20563 | -2.19637 | 279 ft | 0 kts | 162° |